sensor_id;sensor_type;location;lat;lon;timestamp;P1;durP1;ratioP1;P2;durP2;ratioP2
49366;SDS011;35245;52.026;8.540;2022-12-18T00:01:05;44.72;;;24.45;;
49366;SDS011;35245;52.026;8.540;2022-12-18T00:03:43;46.83;;;23.98;;
49366;SDS011;35245;52.026;8.540;2022-12-18T00:06:10;49.58;;;25.70;;
49366;SDS011;35245;52.026;8.540;2022-12-18T00:08:38;55.80;;;27.38;;
49366;SDS011;35245;52.026;8.540;2022-12-18T00:11:06;56.13;;;27.85;;
49366;SDS011;35245;52.026;8.540;2022-12-18T00:13:37;53.50;;;27.87;;
49366;SDS011;35245;52.026;8.540;2022-12-18T00:16:05;38.85;;;24.23;;
49366;SDS011;35245;52.026;8.540;2022-12-18T00:18:35;45.92;;;24.75;;
49366;SDS011;35245;52.026;8.540;2022-12-18T00:21:05;46.38;;;24.38;;
49366;SDS011;35245;52.026;8.540;2022-12-18T00:23:35;52.75;;;23.92;;
49366;SDS011;35245;52.026;8.540;2022-12-18T00:26:05;43.15;;;23.23;;
49366;SDS011;35245;52.026;8.540;2022-12-18T00:28:35;49.13;;;24.33;;
49366;SDS011;35245;52.026;8.540;2022-12-18T00:31:03;51.67;;;26.65;;
49366;SDS011;35245;52.026;8.540;2022-12-18T00:33:33;47.22;;;26.33;;
49366;SDS011;35245;52.026;8.540;2022-12-18T00:36:00;43.90;;;24.60;;
49366;SDS011;35245;52.026;8.540;2022-12-18T00:38:30;46.70;;;25.88;;
49366;SDS011;35245;52.026;8.540;2022-12-18T00:40:57;50.33;;;24.75;;
49366;SDS011;35245;52.026;8.540;2022-12-18T00:43:24;50.50;;;26.90;;
49366;SDS011;35245;52.026;8.540;2022-12-18T00:45:50;45.58;;;25.33;;
49366;SDS011;35245;52.026;8.540;2022-12-18T00:48:18;44.97;;;25.58;;
49366;SDS011;35245;52.026;8.540;2022-12-18T00:50:46;46.33;;;25.00;;
49366;SDS011;35245;52.026;8.540;2022-12-18T00:53:14;47.92;;;25.10;;
49366;SDS011;35245;52.026;8.540;2022-12-18T00:55:43;47.60;;;26.08;;
49366;SDS011;35245;52.026;8.540;2022-12-18T00:58:12;43.63;;;22.67;;
49366;SDS011;35245;52.026;8.540;2022-12-18T01:00:42;41.58;;;24.52;;
49366;SDS011;35245;52.026;8.540;2022-12-18T01:03:10;43.88;;;25.52;;
49366;SDS011;35245;52.026;8.540;2022-12-18T01:05:40;42.47;;;24.23;;
49366;SDS011;35245;52.026;8.540;2022-12-18T01:08:08;38.78;;;23.77;;
49366;SDS011;35245;52.026;8.540;2022-12-18T01:10:35;43.60;;;24.83;;
49366;SDS011;35245;52.026;8.540;2022-12-18T01:13:07;44.83;;;23.85;;
49366;SDS011;35245;52.026;8.540;2022-12-18T01:15:35;44.63;;;22.85;;
49366;SDS011;35245;52.026;8.540;2022-12-18T01:18:05;43.33;;;22.45;;
49366;SDS011;35245;52.026;8.540;2022-12-18T01:20:32;43.30;;;23.67;;
49366;SDS011;35245;52.026;8.540;2022-12-18T01:22:59;45.10;;;23.73;;
49366;SDS011;35245;52.026;8.540;2022-12-18T01:25:27;47.85;;;24.17;;
49366;SDS011;35245;52.026;8.540;2022-12-18T01:27:54;41.88;;;22.98;;
49366;SDS011;35245;52.026;8.540;2022-12-18T01:30:23;39.92;;;22.52;;
49366;SDS011;35245;52.026;8.540;2022-12-18T01:32:50;42.78;;;22.85;;
49366;SDS011;35245;52.026;8.540;2022-12-18T01:35:17;38.28;;;21.15;;
49366;SDS011;35245;52.026;8.540;2022-12-18T01:37:45;42.42;;;23.67;;
49366;SDS011;35245;52.026;8.540;2022-12-18T01:40:12;41.00;;;21.77;;
49366;SDS011;35245;52.026;8.540;2022-12-18T01:42:40;44.90;;;22.60;;
49366;SDS011;35245;52.026;8.540;2022-12-18T01:47:53;44.63;;;22.50;;
49366;SDS011;35245;52.026;8.540;2022-12-18T01:50:24;41.53;;;22.45;;
49366;SDS011;35245;52.026;8.540;2022-12-18T01:52:58;39.30;;;20.52;;
49366;SDS011;35245;52.026;8.540;2022-12-18T01:55:30;37.38;;;19.80;;
49366;SDS011;35245;52.026;8.540;2022-12-18T01:58:03;41.35;;;21.65;;
49366;SDS011;35245;52.026;8.540;2022-12-18T02:00:32;39.17;;;20.15;;
49366;SDS011;35245;52.026;8.540;2022-12-18T02:02:59;37.63;;;20.52;;
49366;SDS011;35245;52.026;8.540;2022-12-18T02:05:29;39.33;;;21.05;;
49366;SDS011;35245;52.026;8.540;2022-12-18T02:08:10;43.00;;;21.88;;
49366;SDS011;35245;52.026;8.540;2022-12-18T02:10:46;37.60;;;19.92;;
49366;SDS011;35245;52.026;8.540;2022-12-18T02:13:25;37.83;;;18.45;;
49366;SDS011;35245;52.026;8.540;2022-12-18T02:16:04;40.33;;;20.30;;
49366;SDS011;35245;52.026;8.540;2022-12-18T02:18:40;33.40;;;19.27;;
49366;SDS011;35245;52.026;8.540;2022-12-18T02:21:17;35.42;;;18.73;;
49366;SDS011;35245;52.026;8.540;2022-12-18T02:23:55;37.38;;;19.48;;
49366;SDS011;35245;52.026;8.540;2022-12-18T02:26:36;43.05;;;20.40;;
49366;SDS011;35245;52.026;8.540;2022-12-18T02:29:11;32.30;;;18.20;;
49366;SDS011;35245;52.026;8.540;2022-12-18T02:31:43;36.28;;;18.45;;
49366;SDS011;35245;52.026;8.540;2022-12-18T02:34:17;31.90;;;17.10;;
49366;SDS011;35245;52.026;8.540;2022-12-18T02:36:47;31.88;;;17.67;;
49366;SDS011;35245;52.026;8.540;2022-12-18T02:39:16;34.38;;;18.92;;
49366;SDS011;35245;52.026;8.540;2022-12-18T02:41:48;27.45;;;14.73;;
49366;SDS011;35245;52.026;8.540;2022-12-18T02:44:16;34.10;;;17.80;;
49366;SDS011;35245;52.026;8.540;2022-12-18T02:46:44;37.25;;;19.02;;
49366;SDS011;35245;52.026;8.540;2022-12-18T02:49:20;38.05;;;18.00;;
49366;SDS011;35245;52.026;8.540;2022-12-18T02:52:01;34.17;;;17.90;;
49366;SDS011;35245;52.026;8.540;2022-12-18T02:54:40;34.92;;;16.92;;
49366;SDS011;35245;52.026;8.540;2022-12-18T02:57:24;32.05;;;16.88;;
49366;SDS011;35245;52.026;8.540;2022-12-18T03:00:04;34.15;;;16.38;;
49366;SDS011;35245;52.026;8.540;2022-12-18T03:02:37;31.67;;;16.55;;
49366;SDS011;35245;52.026;8.540;2022-12-18T03:05:13;30.15;;;15.80;;
49366;SDS011;35245;52.026;8.540;2022-12-18T03:07:46;29.35;;;16.38;;
49366;SDS011;35245;52.026;8.540;2022-12-18T03:10:23;33.35;;;16.80;;
49366;SDS011;35245;52.026;8.540;2022-12-18T03:12:58;39.75;;;18.33;;
49366;SDS011;35245;52.026;8.540;2022-12-18T03:15:30;35.10;;;16.73;;
49366;SDS011;35245;52.026;8.540;2022-12-18T03:18:04;28.15;;;15.77;;
49366;SDS011;35245;52.026;8.540;2022-12-18T03:20:36;30.60;;;16.45;;
49366;SDS011;35245;52.026;8.540;2022-12-18T03:23:09;27.98;;;14.25;;
49366;SDS011;35245;52.026;8.540;2022-12-18T03:25:40;35.50;;;16.38;;
49366;SDS011;35245;52.026;8.540;2022-12-18T03:28:13;34.30;;;15.52;;
49366;SDS011;35245;52.026;8.540;2022-12-18T03:30:46;33.08;;;16.27;;
49366;SDS011;35245;52.026;8.540;2022-12-18T03:33:18;26.45;;;14.25;;
49366;SDS011;35245;52.026;8.540;2022-12-18T03:35:52;26.45;;;15.10;;
49366;SDS011;35245;52.026;8.540;2022-12-18T03:38:19;29.80;;;15.18;;
49366;SDS011;35245;52.026;8.540;2022-12-18T03:40:50;30.70;;;15.77;;
49366;SDS011;35245;52.026;8.540;2022-12-18T03:43:29;35.55;;;15.88;;
49366;SDS011;35245;52.026;8.540;2022-12-18T03:46:07;30.60;;;15.05;;
49366;SDS011;35245;52.026;8.540;2022-12-18T03:48:42;31.00;;;15.38;;
49366;SDS011;35245;52.026;8.540;2022-12-18T03:51:17;28.95;;;15.35;;
49366;SDS011;35245;52.026;8.540;2022-12-18T03:53:51;29.45;;;14.57;;
49366;SDS011;35245;52.026;8.540;2022-12-18T03:56:23;29.60;;;14.23;;
49366;SDS011;35245;52.026;8.540;2022-12-18T03:58:56;29.10;;;15.25;;
49366;SDS011;35245;52.026;8.540;2022-12-18T04:01:28;28.27;;;15.02;;
49366;SDS011;35245;52.026;8.540;2022-12-18T04:06:27;34.67;;;15.00;;
49366;SDS011;35245;52.026;8.540;2022-12-18T04:08:56;30.15;;;14.90;;
49366;SDS011;35245;52.026;8.540;2022-12-18T04:11:24;31.58;;;15.02;;
49366;SDS011;35245;52.026;8.540;2022-12-18T04:13:53;32.65;;;15.85;;
49366;SDS011;35245;52.026;8.540;2022-12-18T04:16:24;32.47;;;15.40;;
49366;SDS011;35245;52.026;8.540;2022-12-18T04:18:51;32.00;;;15.82;;
49366;SDS011;35245;52.026;8.540;2022-12-18T04:21:19;28.90;;;14.60;;
49366;SDS011;35245;52.026;8.540;2022-12-18T04:23:47;28.23;;;14.32;;
49366;SDS011;35245;52.026;8.540;2022-12-18T04:26:15;25.95;;;13.98;;
49366;SDS011;35245;52.026;8.540;2022-12-18T04:28:42;27.55;;;15.20;;
49366;SDS011;35245;52.026;8.540;2022-12-18T04:31:10;25.80;;;13.80;;
49366;SDS011;35245;52.026;8.540;2022-12-18T04:33:38;30.55;;;15.20;;
49366;SDS011;35245;52.026;8.540;2022-12-18T04:36:05;32.13;;;16.55;;
49366;SDS011;35245;52.026;8.540;2022-12-18T04:38:33;31.92;;;15.27;;
49366;SDS011;35245;52.026;8.540;2022-12-18T04:41:00;31.73;;;14.60;;
49366;SDS011;35245;52.026;8.540;2022-12-18T04:43:27;26.13;;;14.57;;
49366;SDS011;35245;52.026;8.540;2022-12-18T04:46:00;28.13;;;15.00;;
49366;SDS011;35245;52.026;8.540;2022-12-18T04:48:30;27.73;;;14.35;;
49366;SDS011;35245;52.026;8.540;2022-12-18T04:50:58;30.98;;;14.98;;
49366;SDS011;35245;52.026;8.540;2022-12-18T04:53:25;30.95;;;15.80;;
49366;SDS011;35245;52.026;8.540;2022-12-18T04:56:01;32.47;;;14.93;;
49366;SDS011;35245;52.026;8.540;2022-12-18T04:58:31;30.83;;;15.20;;
49366;SDS011;35245;52.026;8.540;2022-12-18T05:00:58;24.85;;;13.80;;
49366;SDS011;35245;52.026;8.540;2022-12-18T05:03:26;27.27;;;13.88;;
49366;SDS011;35245;52.026;8.540;2022-12-18T05:05:55;30.20;;;15.80;;
49366;SDS011;35245;52.026;8.540;2022-12-18T05:08:22;28.85;;;14.43;;
49366;SDS011;35245;52.026;8.540;2022-12-18T05:10:49;26.83;;;14.57;;
49366;SDS011;35245;52.026;8.540;2022-12-18T05:13:26;31.42;;;15.82;;
49366;SDS011;35245;52.026;8.540;2022-12-18T05:15:53;33.35;;;16.95;;
49366;SDS011;35245;52.026;8.540;2022-12-18T05:18:21;28.40;;;14.98;;
49366;SDS011;35245;52.026;8.540;2022-12-18T05:20:49;29.80;;;14.45;;
49366;SDS011;35245;52.026;8.540;2022-12-18T05:23:19;32.50;;;16.27;;
49366;SDS011;35245;52.026;8.540;2022-12-18T05:25:50;31.67;;;15.45;;
49366;SDS011;35245;52.026;8.540;2022-12-18T05:28:18;26.58;;;14.15;;
49366;SDS011;35245;52.026;8.540;2022-12-18T05:30:47;29.90;;;16.00;;
49366;SDS011;35245;52.026;8.540;2022-12-18T05:33:15;29.98;;;15.35;;
49366;SDS011;35245;52.026;8.540;2022-12-18T05:35:43;31.23;;;15.77;;
49366;SDS011;35245;52.026;8.540;2022-12-18T05:38:11;29.05;;;15.65;;
49366;SDS011;35245;52.026;8.540;2022-12-18T05:40:42;26.48;;;14.68;;
49366;SDS011;35245;52.026;8.540;2022-12-18T05:43:10;30.33;;;14.75;;
49366;SDS011;35245;52.026;8.540;2022-12-18T05:45:37;30.38;;;14.40;;
49366;SDS011;35245;52.026;8.540;2022-12-18T05:48:05;29.88;;;14.63;;
49366;SDS011;35245;52.026;8.540;2022-12-18T05:50:33;27.90;;;15.30;;
49366;SDS011;35245;52.026;8.540;2022-12-18T05:53:01;25.27;;;14.02;;
49366;SDS011;35245;52.026;8.540;2022-12-18T05:55:29;28.80;;;14.13;;
49366;SDS011;35245;52.026;8.540;2022-12-18T05:58:01;29.25;;;14.70;;
49366;SDS011;35245;52.026;8.540;2022-12-18T06:00:29;31.05;;;14.95;;
49366;SDS011;35245;52.026;8.540;2022-12-18T06:02:57;26.15;;;13.80;;
49366;SDS011;35245;52.026;8.540;2022-12-18T06:05:24;29.60;;;14.55;;
49366;SDS011;35245;52.026;8.540;2022-12-18T06:07:51;30.75;;;14.65;;
49366;SDS011;35245;52.026;8.540;2022-12-18T06:10:18;29.85;;;14.15;;
49366;SDS011;35245;52.026;8.540;2022-12-18T06:12:46;26.20;;;14.38;;
49366;SDS011;35245;52.026;8.540;2022-12-18T06:15:14;30.45;;;15.80;;
49366;SDS011;35245;52.026;8.540;2022-12-18T06:17:42;36.20;;;16.13;;
49366;SDS011;35245;52.026;8.540;2022-12-18T06:20:09;29.23;;;14.43;;
49366;SDS011;35245;52.026;8.540;2022-12-18T06:22:36;34.95;;;16.88;;
49366;SDS011;35245;52.026;8.540;2022-12-18T06:25:04;40.58;;;18.38;;
49366;SDS011;35245;52.026;8.540;2022-12-18T06:27:32;34.15;;;16.98;;
49366;SDS011;35245;52.026;8.540;2022-12-18T06:30:00;32.20;;;15.90;;
49366;SDS011;35245;52.026;8.540;2022-12-18T06:32:28;29.90;;;15.38;;
49366;SDS011;35245;52.026;8.540;2022-12-18T06:34:55;30.92;;;15.40;;
49366;SDS011;35245;52.026;8.540;2022-12-18T06:37:23;30.98;;;14.73;;
49366;SDS011;35245;52.026;8.540;2022-12-18T06:39:51;28.80;;;15.15;;
49366;SDS011;35245;52.026;8.540;2022-12-18T06:42:18;28.55;;;15.73;;
49366;SDS011;35245;52.026;8.540;2022-12-18T06:44:48;27.23;;;14.80;;
49366;SDS011;35245;52.026;8.540;2022-12-18T06:47:16;27.60;;;14.20;;
49366;SDS011;35245;52.026;8.540;2022-12-18T06:49:44;32.67;;;15.10;;
49366;SDS011;35245;52.026;8.540;2022-12-18T06:52:11;27.48;;;14.75;;
49366;SDS011;35245;52.026;8.540;2022-12-18T06:54:41;29.92;;;14.77;;
49366;SDS011;35245;52.026;8.540;2022-12-18T06:57:08;28.73;;;14.88;;
49366;SDS011;35245;52.026;8.540;2022-12-18T06:59:35;25.13;;;14.10;;
49366;SDS011;35245;52.026;8.540;2022-12-18T07:02:02;26.98;;;14.55;;
49366;SDS011;35245;52.026;8.540;2022-12-18T07:04:30;28.05;;;13.90;;
49366;SDS011;35245;52.026;8.540;2022-12-18T07:06:59;28.63;;;14.52;;
49366;SDS011;35245;52.026;8.540;2022-12-18T07:09:26;28.13;;;15.05;;
49366;SDS011;35245;52.026;8.540;2022-12-18T07:11:53;28.55;;;15.35;;
49366;SDS011;35245;52.026;8.540;2022-12-18T07:14:20;31.65;;;15.50;;
49366;SDS011;35245;52.026;8.540;2022-12-18T07:16:48;27.20;;;14.88;;
49366;SDS011;35245;52.026;8.540;2022-12-18T07:19:15;28.40;;;14.77;;
49366;SDS011;35245;52.026;8.540;2022-12-18T07:21:42;26.50;;;14.00;;
49366;SDS011;35245;52.026;8.540;2022-12-18T07:24:11;24.30;;;14.50;;
49366;SDS011;35245;52.026;8.540;2022-12-18T07:26:38;26.67;;;13.75;;
49366;SDS011;35245;52.026;8.540;2022-12-18T07:29:05;29.92;;;14.48;;
49366;SDS011;35245;52.026;8.540;2022-12-18T07:31:33;29.33;;;13.60;;
49366;SDS011;35245;52.026;8.540;2022-12-18T07:34:00;28.42;;;14.13;;
49366;SDS011;35245;52.026;8.540;2022-12-18T07:36:27;27.42;;;13.07;;
49366;SDS011;35245;52.026;8.540;2022-12-18T07:38:54;28.50;;;14.65;;
49366;SDS011;35245;52.026;8.540;2022-12-18T07:41:23;30.73;;;15.10;;
49366;SDS011;35245;52.026;8.540;2022-12-18T07:43:50;27.98;;;13.43;;
49366;SDS011;35245;52.026;8.540;2022-12-18T07:46:17;30.38;;;14.88;;
49366;SDS011;35245;52.026;8.540;2022-12-18T07:48:44;26.10;;;13.30;;
49366;SDS011;35245;52.026;8.540;2022-12-18T07:51:12;25.52;;;13.35;;
49366;SDS011;35245;52.026;8.540;2022-12-18T07:53:40;25.95;;;13.45;;
49366;SDS011;35245;52.026;8.540;2022-12-18T07:56:08;27.33;;;13.90;;
49366;SDS011;35245;52.026;8.540;2022-12-18T07:58:38;31.15;;;14.20;;
49366;SDS011;35245;52.026;8.540;2022-12-18T08:01:06;31.30;;;15.68;;
49366;SDS011;35245;52.026;8.540;2022-12-18T08:03:36;32.15;;;15.63;;
49366;SDS011;35245;52.026;8.540;2022-12-18T08:06:05;33.85;;;15.75;;
49366;SDS011;35245;52.026;8.540;2022-12-18T08:08:34;34.08;;;16.15;;
49366;SDS011;35245;52.026;8.540;2022-12-18T08:11:02;29.98;;;14.68;;
49366;SDS011;35245;52.026;8.540;2022-12-18T08:13:29;29.10;;;15.40;;
49366;SDS011;35245;52.026;8.540;2022-12-18T08:15:58;29.38;;;15.55;;
49366;SDS011;35245;52.026;8.540;2022-12-18T08:18:27;28.73;;;14.52;;
49366;SDS011;35245;52.026;8.540;2022-12-18T08:21:07;26.42;;;13.80;;
49366;SDS011;35245;52.026;8.540;2022-12-18T08:23:35;26.42;;;14.10;;
49366;SDS011;35245;52.026;8.540;2022-12-18T08:26:03;27.60;;;14.40;;
49366;SDS011;35245;52.026;8.540;2022-12-18T08:28:31;30.48;;;14.05;;
49366;SDS011;35245;52.026;8.540;2022-12-18T08:30:59;24.42;;;13.15;;
49366;SDS011;35245;52.026;8.540;2022-12-18T08:33:27;27.50;;;13.95;;
49366;SDS011;35245;52.026;8.540;2022-12-18T08:35:54;27.33;;;14.52;;
49366;SDS011;35245;52.026;8.540;2022-12-18T08:38:21;27.42;;;14.40;;
49366;SDS011;35245;52.026;8.540;2022-12-18T08:40:48;28.83;;;14.30;;
49366;SDS011;35245;52.026;8.540;2022-12-18T08:43:16;27.80;;;14.48;;
49366;SDS011;35245;52.026;8.540;2022-12-18T08:46:04;29.40;;;15.07;;
49366;SDS011;35245;52.026;8.540;2022-12-18T08:48:31;27.35;;;13.50;;
49366;SDS011;35245;52.026;8.540;2022-12-18T08:50:59;26.75;;;14.38;;
49366;SDS011;35245;52.026;8.540;2022-12-18T08:53:26;27.90;;;13.45;;
49366;SDS011;35245;52.026;8.540;2022-12-18T08:55:55;27.20;;;13.48;;
49366;SDS011;35245;52.026;8.540;2022-12-18T08:58:22;24.92;;;13.75;;
49366;SDS011;35245;52.026;8.540;2022-12-18T09:00:50;28.58;;;15.02;;
49366;SDS011;35245;52.026;8.540;2022-12-18T09:03:18;27.10;;;14.13;;
49366;SDS011;35245;52.026;8.540;2022-12-18T09:05:47;22.88;;;12.63;;
49366;SDS011;35245;52.026;8.540;2022-12-18T09:08:14;26.45;;;13.82;;
49366;SDS011;35245;52.026;8.540;2022-12-18T09:10:42;27.33;;;13.25;;
49366;SDS011;35245;52.026;8.540;2022-12-18T09:13:10;23.85;;;12.27;;
49366;SDS011;35245;52.026;8.540;2022-12-18T09:15:40;25.55;;;11.70;;
49366;SDS011;35245;52.026;8.540;2022-12-18T09:18:08;24.17;;;12.98;;
49366;SDS011;35245;52.026;8.540;2022-12-18T09:20:37;23.95;;;12.82;;
49366;SDS011;35245;52.026;8.540;2022-12-18T09:23:05;26.58;;;13.10;;
49366;SDS011;35245;52.026;8.540;2022-12-18T09:25:33;26.35;;;13.55;;
49366;SDS011;35245;52.026;8.540;2022-12-18T09:28:02;25.45;;;12.80;;
49366;SDS011;35245;52.026;8.540;2022-12-18T09:30:32;22.90;;;12.38;;
49366;SDS011;35245;52.026;8.540;2022-12-18T09:33:00;25.90;;;13.43;;
49366;SDS011;35245;52.026;8.540;2022-12-18T09:35:27;26.52;;;14.35;;
49366;SDS011;35245;52.026;8.540;2022-12-18T09:37:56;21.95;;;12.23;;
49366;SDS011;35245;52.026;8.540;2022-12-18T09:40:23;22.95;;;12.10;;
49366;SDS011;35245;52.026;8.540;2022-12-18T09:42:56;22.05;;;12.18;;
49366;SDS011;35245;52.026;8.540;2022-12-18T09:45:26;24.95;;;12.10;;
49366;SDS011;35245;52.026;8.540;2022-12-18T09:47:56;26.02;;;13.35;;
49366;SDS011;35245;52.026;8.540;2022-12-18T09:50:31;27.58;;;13.00;;
49366;SDS011;35245;52.026;8.540;2022-12-18T09:53:04;27.15;;;14.38;;
49366;SDS011;35245;52.026;8.540;2022-12-18T09:55:39;28.83;;;13.52;;
49366;SDS011;35245;52.026;8.540;2022-12-18T09:58:13;27.27;;;14.05;;
49366;SDS011;35245;52.026;8.540;2022-12-18T10:00:47;28.63;;;14.45;;
49366;SDS011;35245;52.026;8.540;2022-12-18T10:03:15;25.92;;;14.00;;
49366;SDS011;35245;52.026;8.540;2022-12-18T10:05:43;24.17;;;12.82;;
49366;SDS011;35245;52.026;8.540;2022-12-18T10:08:22;26.05;;;14.18;;
49366;SDS011;35245;52.026;8.540;2022-12-18T10:11:01;23.65;;;13.57;;
49366;SDS011;35245;52.026;8.540;2022-12-18T10:13:45;25.95;;;13.00;;
49366;SDS011;35245;52.026;8.540;2022-12-18T10:16:19;26.35;;;14.05;;
49366;SDS011;35245;52.026;8.540;2022-12-18T10:19:00;25.13;;;13.88;;
49366;SDS011;35245;52.026;8.540;2022-12-18T10:21:45;24.65;;;13.32;;
49366;SDS011;35245;52.026;8.540;2022-12-18T10:24:29;25.67;;;13.55;;
49366;SDS011;35245;52.026;8.540;2022-12-18T10:27:08;25.88;;;13.60;;
49366;SDS011;35245;52.026;8.540;2022-12-18T10:29:41;20.17;;;12.10;;
49366;SDS011;35245;52.026;8.540;2022-12-18T10:32:13;22.33;;;12.35;;
49366;SDS011;35245;52.026;8.540;2022-12-18T10:34:44;23.45;;;12.85;;
49366;SDS011;35245;52.026;8.540;2022-12-18T10:37:15;24.52;;;11.98;;
49366;SDS011;35245;52.026;8.540;2022-12-18T10:42:30;19.27;;;9.93;;
49366;SDS011;35245;52.026;8.540;2022-12-18T10:45:00;18.05;;;10.20;;
49366;SDS011;35245;52.026;8.540;2022-12-18T10:49:57;16.85;;;9.32;;
49366;SDS011;35245;52.026;8.540;2022-12-18T10:52:25;18.70;;;9.35;;
49366;SDS011;35245;52.026;8.540;2022-12-18T10:54:58;16.90;;;9.35;;
49366;SDS011;35245;52.026;8.540;2022-12-18T10:57:32;15.80;;;8.95;;
49366;SDS011;35245;52.026;8.540;2022-12-18T11:00:19;16.33;;;8.57;;
49366;SDS011;35245;52.026;8.540;2022-12-18T11:02:52;17.50;;;9.55;;
49366;SDS011;35245;52.026;8.540;2022-12-18T11:05:25;19.42;;;9.40;;
49366;SDS011;35245;52.026;8.540;2022-12-18T11:07:56;18.55;;;9.23;;
49366;SDS011;35245;52.026;8.540;2022-12-18T11:10:30;18.20;;;9.50;;
49366;SDS011;35245;52.026;8.540;2022-12-18T11:13:09;15.70;;;8.18;;
49366;SDS011;35245;52.026;8.540;2022-12-18T11:15:43;16.52;;;8.70;;
49366;SDS011;35245;52.026;8.540;2022-12-18T11:18:16;16.27;;;8.02;;
49366;SDS011;35245;52.026;8.540;2022-12-18T11:20:50;16.20;;;8.05;;
49366;SDS011;35245;52.026;8.540;2022-12-18T11:23:21;15.75;;;8.43;;
49366;SDS011;35245;52.026;8.540;2022-12-18T11:25:54;15.52;;;8.20;;
49366;SDS011;35245;52.026;8.540;2022-12-18T11:28:28;14.23;;;7.72;;
49366;SDS011;35245;52.026;8.540;2022-12-18T11:31:09;15.93;;;8.23;;
49366;SDS011;35245;52.026;8.540;2022-12-18T11:33:52;14.90;;;8.45;;
49366;SDS011;35245;52.026;8.540;2022-12-18T11:36:28;15.32;;;8.07;;
49366;SDS011;35245;52.026;8.540;2022-12-18T11:39:01;14.70;;;7.82;;
49366;SDS011;35245;52.026;8.540;2022-12-18T11:41:41;14.68;;;7.38;;
49366;SDS011;35245;52.026;8.540;2022-12-18T11:44:35;14.82;;;7.88;;
49366;SDS011;35245;52.026;8.540;2022-12-18T11:47:10;13.90;;;7.70;;
49366;SDS011;35245;52.026;8.540;2022-12-18T11:49:48;15.07;;;7.78;;
49366;SDS011;35245;52.026;8.540;2022-12-18T11:52:17;14.65;;;7.65;;
49366;SDS011;35245;52.026;8.540;2022-12-18T11:54:50;13.68;;;7.47;;
49366;SDS011;35245;52.026;8.540;2022-12-18T11:57:27;13.48;;;7.18;;
49366;SDS011;35245;52.026;8.540;2022-12-18T12:00:07;13.13;;;7.45;;
49366;SDS011;35245;52.026;8.540;2022-12-18T12:02:47;14.65;;;7.88;;
49366;SDS011;35245;52.026;8.540;2022-12-18T12:05:51;13.10;;;7.32;;
49366;SDS011;35245;52.026;8.540;2022-12-18T12:08:33;13.15;;;7.95;;
49366;SDS011;35245;52.026;8.540;2022-12-18T12:11:13;14.88;;;7.80;;
49366;SDS011;35245;52.026;8.540;2022-12-18T12:13:56;13.98;;;7.75;;
49366;SDS011;35245;52.026;8.540;2022-12-18T12:16:41;12.77;;;7.28;;
49366;SDS011;35245;52.026;8.540;2022-12-18T12:19:21;14.38;;;7.18;;
49366;SDS011;35245;52.026;8.540;2022-12-18T12:22:03;15.15;;;7.32;;
49366;SDS011;35245;52.026;8.540;2022-12-18T12:24:46;16.25;;;8.05;;
49366;SDS011;35245;52.026;8.540;2022-12-18T12:27:28;13.57;;;6.78;;
49366;SDS011;35245;52.026;8.540;2022-12-18T12:30:06;13.55;;;7.28;;
49366;SDS011;35245;52.026;8.540;2022-12-18T12:32:41;14.00;;;7.07;;
49366;SDS011;35245;52.026;8.540;2022-12-18T12:35:29;11.55;;;7.10;;
49366;SDS011;35245;52.026;8.540;2022-12-18T12:38:10;14.20;;;7.32;;
49366;SDS011;35245;52.026;8.540;2022-12-18T12:40:44;12.93;;;7.03;;
49366;SDS011;35245;52.026;8.540;2022-12-18T12:43:20;13.30;;;6.97;;
49366;SDS011;35245;52.026;8.540;2022-12-18T12:45:55;14.60;;;7.15;;
49366;SDS011;35245;52.026;8.540;2022-12-18T12:48:33;15.23;;;7.78;;
49366;SDS011;35245;52.026;8.540;2022-12-18T12:51:11;13.07;;;6.47;;
49366;SDS011;35245;52.026;8.540;2022-12-18T12:53:44;14.18;;;7.03;;
49366;SDS011;35245;52.026;8.540;2022-12-18T12:56:13;16.55;;;6.97;;
49366;SDS011;35245;52.026;8.540;2022-12-18T12:58:46;12.38;;;6.55;;
49366;SDS011;35245;52.026;8.540;2022-12-18T13:01:27;10.77;;;6.18;;
49366;SDS011;35245;52.026;8.540;2022-12-18T13:04:05;12.65;;;6.45;;
49366;SDS011;35245;52.026;8.540;2022-12-18T13:06:49;13.95;;;7.00;;
49366;SDS011;35245;52.026;8.540;2022-12-18T13:09:29;16.30;;;6.82;;
49366;SDS011;35245;52.026;8.540;2022-12-18T13:12:01;15.20;;;7.30;;
49366;SDS011;35245;52.026;8.540;2022-12-18T13:14:48;15.32;;;6.43;;
49366;SDS011;35245;52.026;8.540;2022-12-18T13:17:30;19.48;;;7.68;;
49366;SDS011;35245;52.026;8.540;2022-12-18T13:20:07;14.68;;;7.78;;
49366;SDS011;35245;52.026;8.540;2022-12-18T13:22:39;14.45;;;7.88;;
49366;SDS011;35245;52.026;8.540;2022-12-18T13:25:32;13.82;;;6.95;;
49366;SDS011;35245;52.026;8.540;2022-12-18T13:28:12;13.85;;;7.70;;
49366;SDS011;35245;52.026;8.540;2022-12-18T13:30:47;17.30;;;7.03;;
49366;SDS011;35245;52.026;8.540;2022-12-18T13:36:26;14.45;;;7.70;;
49366;SDS011;35245;52.026;8.540;2022-12-18T13:39:09;18.75;;;7.70;;
49366;SDS011;35245;52.026;8.540;2022-12-18T13:41:48;14.13;;;6.18;;
49366;SDS011;35245;52.026;8.540;2022-12-18T13:44:22;16.98;;;6.65;;
49366;SDS011;35245;52.026;8.540;2022-12-18T13:47:00;14.80;;;6.63;;
49366;SDS011;35245;52.026;8.540;2022-12-18T13:49:32;17.20;;;7.75;;
49366;SDS011;35245;52.026;8.540;2022-12-18T13:52:14;12.35;;;6.35;;
49366;SDS011;35245;52.026;8.540;2022-12-18T13:54:44;12.65;;;6.47;;
49366;SDS011;35245;52.026;8.540;2022-12-18T13:57:27;13.38;;;5.97;;
49366;SDS011;35245;52.026;8.540;2022-12-18T13:59:57;14.55;;;6.43;;
49366;SDS011;35245;52.026;8.540;2022-12-18T14:02:44;12.65;;;5.75;;
49366;SDS011;35245;52.026;8.540;2022-12-18T14:05:22;16.52;;;7.05;;
49366;SDS011;35245;52.026;8.540;2022-12-18T14:07:51;14.50;;;5.80;;
49366;SDS011;35245;52.026;8.540;2022-12-18T14:10:19;12.40;;;6.18;;
49366;SDS011;35245;52.026;8.540;2022-12-18T14:12:48;13.70;;;5.72;;
49366;SDS011;35245;52.026;8.540;2022-12-18T14:15:24;21.42;;;8.02;;
49366;SDS011;35245;52.026;8.540;2022-12-18T14:17:59;11.77;;;5.85;;
49366;SDS011;35245;52.026;8.540;2022-12-18T14:20:31;10.85;;;5.43;;
49366;SDS011;35245;52.026;8.540;2022-12-18T14:23:00;10.75;;;5.93;;
49366;SDS011;35245;52.026;8.540;2022-12-18T14:25:28;10.65;;;5.57;;
49366;SDS011;35245;52.026;8.540;2022-12-18T14:28:02;14.52;;;6.50;;
49366;SDS011;35245;52.026;8.540;2022-12-18T14:30:42;19.80;;;6.30;;
49366;SDS011;35245;52.026;8.540;2022-12-18T14:33:11;22.90;;;5.85;;
49366;SDS011;35245;52.026;8.540;2022-12-18T14:35:42;15.70;;;6.15;;
49366;SDS011;35245;52.026;8.540;2022-12-18T14:38:22;11.82;;;5.97;;
49366;SDS011;35245;52.026;8.540;2022-12-18T14:40:53;12.30;;;5.43;;
49366;SDS011;35245;52.026;8.540;2022-12-18T14:43:25;10.80;;;5.22;;
49366;SDS011;35245;52.026;8.540;2022-12-18T14:45:55;11.75;;;5.45;;
49366;SDS011;35245;52.026;8.540;2022-12-18T14:48:30;12.52;;;5.95;;
49366;SDS011;35245;52.026;8.540;2022-12-18T14:51:06;13.55;;;5.20;;
49366;SDS011;35245;52.026;8.540;2022-12-18T14:53:42;16.73;;;5.88;;
49366;SDS011;35245;52.026;8.540;2022-12-18T14:56:15;13.00;;;5.28;;
49366;SDS011;35245;52.026;8.540;2022-12-18T14:58:46;9.95;;;4.97;;
49366;SDS011;35245;52.026;8.540;2022-12-18T15:01:20;7.88;;;4.10;;
49366;SDS011;35245;52.026;8.540;2022-12-18T15:03:50;8.70;;;4.57;;
49366;SDS011;35245;52.026;8.540;2022-12-18T15:06:25;13.48;;;4.78;;